sensor_id;sensor_type;location;lat;lon;timestamp;P1;durP1;ratioP1;P2;durP2;ratioP2
59008;SDS011;44794;42.652;23.318;2023-04-24T00:00:39;19.55;;;13.90;;
59008;SDS011;44794;42.652;23.318;2023-04-24T00:03:05;19.85;;;14.68;;
59008;SDS011;44794;42.652;23.318;2023-04-24T00:05:31;21.55;;;14.27;;
59008;SDS011;44794;42.652;23.318;2023-04-24T00:07:57;22.85;;;14.27;;
59008;SDS011;44794;42.652;23.318;2023-04-24T00:10:23;21.40;;;14.80;;
59008;SDS011;44794;42.652;23.318;2023-04-24T00:12:48;22.67;;;14.30;;
59008;SDS011;44794;42.652;23.318;2023-04-24T00:15:14;19.67;;;14.13;;
59008;SDS011;44794;42.652;23.318;2023-04-24T00:17:39;21.40;;;14.30;;
59008;SDS011;44794;42.652;23.318;2023-04-24T00:20:05;17.58;;;13.90;;
59008;SDS011;44794;42.652;23.318;2023-04-24T00:22:32;20.00;;;14.35;;
59008;SDS011;44794;42.652;23.318;2023-04-24T00:24:57;19.30;;;14.05;;
59008;SDS011;44794;42.652;23.318;2023-04-24T00:27:23;21.05;;;14.07;;
59008;SDS011;44794;42.652;23.318;2023-04-24T00:29:48;21.20;;;14.05;;
59008;SDS011;44794;42.652;23.318;2023-04-24T00:32:14;23.83;;;14.40;;
59008;SDS011;44794;42.652;23.318;2023-04-24T00:34:40;24.15;;;15.05;;
59008;SDS011;44794;42.652;23.318;2023-04-24T00:37:05;19.40;;;13.45;;
59008;SDS011;44794;42.652;23.318;2023-04-24T00:39:31;24.95;;;14.57;;
59008;SDS011;44794;42.652;23.318;2023-04-24T00:41:57;18.63;;;13.25;;
59008;SDS011;44794;42.652;23.318;2023-04-24T00:44:22;19.88;;;13.10;;
59008;SDS011;44794;42.652;23.318;2023-04-24T00:46:48;18.77;;;13.40;;
59008;SDS011;44794;42.652;23.318;2023-04-24T00:49:19;22.05;;;14.02;;
59008;SDS011;44794;42.652;23.318;2023-04-24T00:51:48;23.60;;;13.27;;
59008;SDS011;44794;42.652;23.318;2023-04-24T00:54:14;21.92;;;14.35;;
59008;SDS011;44794;42.652;23.318;2023-04-24T00:56:40;22.88;;;14.80;;
59008;SDS011;44794;42.652;23.318;2023-04-24T00:59:07;21.95;;;15.15;;
59008;SDS011;44794;42.652;23.318;2023-04-24T01:01:32;24.67;;;14.77;;
59008;SDS011;44794;42.652;23.318;2023-04-24T01:03:58;17.40;;;13.57;;
59008;SDS011;44794;42.652;23.318;2023-04-24T01:06:26;22.70;;;14.50;;
59008;SDS011;44794;42.652;23.318;2023-04-24T01:08:53;17.65;;;13.15;;
59008;SDS011;44794;42.652;23.318;2023-04-24T01:11:19;20.73;;;13.77;;
59008;SDS011;44794;42.652;23.318;2023-04-24T01:13:47;21.67;;;15.27;;
59008;SDS011;44794;42.652;23.318;2023-04-24T01:16:13;21.52;;;13.82;;
59008;SDS011;44794;42.652;23.318;2023-04-24T01:18:42;19.25;;;12.73;;
59008;SDS011;44794;42.652;23.318;2023-04-24T01:21:09;20.83;;;13.98;;
59008;SDS011;44794;42.652;23.318;2023-04-24T01:23:38;25.17;;;16.48;;
59008;SDS011;44794;42.652;23.318;2023-04-24T01:26:04;26.50;;;16.40;;
59008;SDS011;44794;42.652;23.318;2023-04-24T01:28:29;21.83;;;16.92;;
59008;SDS011;44794;42.652;23.318;2023-04-24T01:30:55;28.10;;;16.70;;
59008;SDS011;44794;42.652;23.318;2023-04-24T01:33:21;19.90;;;13.70;;
59008;SDS011;44794;42.652;23.318;2023-04-24T01:35:47;17.23;;;13.18;;
59008;SDS011;44794;42.652;23.318;2023-04-24T01:38:14;21.17;;;13.50;;
59008;SDS011;44794;42.652;23.318;2023-04-24T01:40:39;22.95;;;14.95;;
59008;SDS011;44794;42.652;23.318;2023-04-24T01:43:05;21.45;;;15.30;;
59008;SDS011;44794;42.652;23.318;2023-04-24T01:45:30;21.33;;;15.15;;
59008;SDS011;44794;42.652;23.318;2023-04-24T01:47:56;18.65;;;13.25;;
59008;SDS011;44794;42.652;23.318;2023-04-24T01:50:22;21.90;;;14.18;;
59008;SDS011;44794;42.652;23.318;2023-04-24T01:52:47;21.70;;;12.45;;
59008;SDS011;44794;42.652;23.318;2023-04-24T01:55:13;17.23;;;11.75;;
59008;SDS011;44794;42.652;23.318;2023-04-24T01:57:38;20.40;;;13.23;;
59008;SDS011;44794;42.652;23.318;2023-04-24T02:00:05;21.35;;;15.70;;
59008;SDS011;44794;42.652;23.318;2023-04-24T02:02:31;25.67;;;15.60;;
59008;SDS011;44794;42.652;23.318;2023-04-24T02:04:57;25.65;;;17.50;;
59008;SDS011;44794;42.652;23.318;2023-04-24T02:07:22;34.45;;;18.20;;
59008;SDS011;44794;42.652;23.318;2023-04-24T02:09:48;26.80;;;18.27;;
59008;SDS011;44794;42.652;23.318;2023-04-24T02:12:17;26.67;;;18.02;;
59008;SDS011;44794;42.652;23.318;2023-04-24T02:14:43;25.75;;;18.48;;
59008;SDS011;44794;42.652;23.318;2023-04-24T02:17:09;27.88;;;18.75;;
59008;SDS011;44794;42.652;23.318;2023-04-24T02:19:34;25.88;;;17.60;;
59008;SDS011;44794;42.652;23.318;2023-04-24T02:22:00;24.98;;;17.55;;
59008;SDS011;44794;42.652;23.318;2023-04-24T02:24:25;27.48;;;18.33;;
59008;SDS011;44794;42.652;23.318;2023-04-24T02:26:51;28.17;;;17.85;;
59008;SDS011;44794;42.652;23.318;2023-04-24T02:29:16;25.02;;;19.13;;
59008;SDS011;44794;42.652;23.318;2023-04-24T02:31:42;27.75;;;19.13;;
59008;SDS011;44794;42.652;23.318;2023-04-24T02:34:07;26.95;;;18.67;;
59008;SDS011;44794;42.652;23.318;2023-04-24T02:36:32;27.60;;;19.80;;
59008;SDS011;44794;42.652;23.318;2023-04-24T02:38:58;29.52;;;19.85;;
59008;SDS011;44794;42.652;23.318;2023-04-24T02:41:23;22.20;;;16.20;;
59008;SDS011;44794;42.652;23.318;2023-04-24T02:43:49;29.42;;;18.17;;
59008;SDS011;44794;42.652;23.318;2023-04-24T02:46:14;27.25;;;19.00;;
59008;SDS011;44794;42.652;23.318;2023-04-24T02:48:40;29.48;;;19.95;;
59008;SDS011;44794;42.652;23.318;2023-04-24T02:51:05;29.10;;;18.42;;
59008;SDS011;44794;42.652;23.318;2023-04-24T02:53:31;27.23;;;18.95;;
59008;SDS011;44794;42.652;23.318;2023-04-24T02:55:57;27.75;;;19.17;;
59008;SDS011;44794;42.652;23.318;2023-04-24T02:58:23;29.52;;;20.33;;
59008;SDS011;44794;42.652;23.318;2023-04-24T03:00:48;29.27;;;20.25;;
59008;SDS011;44794;42.652;23.318;2023-04-24T03:03:14;31.33;;;20.02;;
59008;SDS011;44794;42.652;23.318;2023-04-24T03:05:40;26.42;;;19.95;;
59008;SDS011;44794;42.652;23.318;2023-04-24T03:08:05;30.70;;;20.15;;
59008;SDS011;44794;42.652;23.318;2023-04-24T03:10:31;30.17;;;20.33;;
59008;SDS011;44794;42.652;23.318;2023-04-24T03:12:57;29.15;;;20.85;;
59008;SDS011;44794;42.652;23.318;2023-04-24T03:15:22;26.50;;;19.50;;
59008;SDS011;44794;42.652;23.318;2023-04-24T03:17:47;29.00;;;19.15;;
59008;SDS011;44794;42.652;23.318;2023-04-24T03:20:13;33.95;;;20.30;;
59008;SDS011;44794;42.652;23.318;2023-04-24T03:22:39;30.27;;;20.85;;
59008;SDS011;44794;42.652;23.318;2023-04-24T03:25:05;27.70;;;20.73;;
59008;SDS011;44794;42.652;23.318;2023-04-24T03:27:31;30.02;;;19.92;;
59008;SDS011;44794;42.652;23.318;2023-04-24T03:29:56;30.38;;;19.85;;
59008;SDS011;44794;42.652;23.318;2023-04-24T03:32:22;30.90;;;19.80;;
59008;SDS011;44794;42.652;23.318;2023-04-24T03:34:48;27.27;;;19.15;;
59008;SDS011;44794;42.652;23.318;2023-04-24T03:37:14;29.50;;;19.73;;
59008;SDS011;44794;42.652;23.318;2023-04-24T03:39:40;30.23;;;19.30;;
59008;SDS011;44794;42.652;23.318;2023-04-24T03:42:05;30.45;;;19.05;;
59008;SDS011;44794;42.652;23.318;2023-04-24T03:44:30;29.75;;;18.40;;
59008;SDS011;44794;42.652;23.318;2023-04-24T03:46:57;28.70;;;18.50;;
59008;SDS011;44794;42.652;23.318;2023-04-24T03:49:23;31.88;;;18.58;;
59008;SDS011;44794;42.652;23.318;2023-04-24T03:51:48;27.55;;;18.65;;
59008;SDS011;44794;42.652;23.318;2023-04-24T03:54:14;30.48;;;18.70;;
59008;SDS011;44794;42.652;23.318;2023-04-24T03:56:39;29.05;;;17.98;;
59008;SDS011;44794;42.652;23.318;2023-04-24T03:59:04;31.40;;;18.65;;
59008;SDS011;44794;42.652;23.318;2023-04-24T04:01:30;25.85;;;17.63;;
59008;SDS011;44794;42.652;23.318;2023-04-24T04:03:55;25.48;;;16.63;;
59008;SDS011;44794;42.652;23.318;2023-04-24T04:06:21;29.08;;;16.20;;
59008;SDS011;44794;42.652;23.318;2023-04-24T04:08:47;27.83;;;15.82;;
59008;SDS011;44794;42.652;23.318;2023-04-24T04:11:12;22.88;;;15.68;;
59008;SDS011;44794;42.652;23.318;2023-04-24T04:13:38;23.88;;;14.63;;
59008;SDS011;44794;42.652;23.318;2023-04-24T04:16:03;22.77;;;15.20;;
59008;SDS011;44794;42.652;23.318;2023-04-24T04:18:29;19.75;;;14.40;;
59008;SDS011;44794;42.652;23.318;2023-04-24T04:20:55;23.90;;;15.85;;
59008;SDS011;44794;42.652;23.318;2023-04-24T04:23:22;24.70;;;15.23;;
59008;SDS011;44794;42.652;23.318;2023-04-24T04:25:47;22.08;;;14.40;;
59008;SDS011;44794;42.652;23.318;2023-04-24T04:28:13;23.42;;;14.73;;
59008;SDS011;44794;42.652;23.318;2023-04-24T04:30:38;23.05;;;14.38;;
59008;SDS011;44794;42.652;23.318;2023-04-24T04:33:05;21.35;;;16.05;;
59008;SDS011;44794;42.652;23.318;2023-04-24T04:35:30;24.27;;;13.88;;
59008;SDS011;44794;42.652;23.318;2023-04-24T04:37:55;22.35;;;13.13;;
59008;SDS011;44794;42.652;23.318;2023-04-24T04:40:23;19.92;;;13.63;;
59008;SDS011;44794;42.652;23.318;2023-04-24T04:42:49;20.52;;;13.00;;
59008;SDS011;44794;42.652;23.318;2023-04-24T04:45:18;20.73;;;13.13;;
59008;SDS011;44794;42.652;23.318;2023-04-24T04:47:43;25.17;;;15.80;;
59008;SDS011;44794;42.652;23.318;2023-04-24T04:50:09;22.35;;;14.30;;
59008;SDS011;44794;42.652;23.318;2023-04-24T04:52:35;24.92;;;15.50;;
59008;SDS011;44794;42.652;23.318;2023-04-24T04:55:01;24.65;;;14.95;;
59008;SDS011;44794;42.652;23.318;2023-04-24T04:57:26;29.38;;;14.05;;
59008;SDS011;44794;42.652;23.318;2023-04-24T04:59:52;26.40;;;14.02;;
59008;SDS011;44794;42.652;23.318;2023-04-24T05:02:17;26.52;;;14.35;;
59008;SDS011;44794;42.652;23.318;2023-04-24T05:04:43;21.58;;;13.20;;
59008;SDS011;44794;42.652;23.318;2023-04-24T05:07:08;25.20;;;14.73;;
59008;SDS011;44794;42.652;23.318;2023-04-24T05:09:34;32.63;;;18.15;;
59008;SDS011;44794;42.652;23.318;2023-04-24T05:11:59;26.27;;;14.00;;
59008;SDS011;44794;42.652;23.318;2023-04-24T05:14:25;21.98;;;12.52;;
59008;SDS011;44794;42.652;23.318;2023-04-24T05:16:50;17.60;;;11.77;;
59008;SDS011;44794;42.652;23.318;2023-04-24T05:19:16;17.13;;;9.52;;
59008;SDS011;44794;42.652;23.318;2023-04-24T05:21:41;17.48;;;10.77;;
59008;SDS011;44794;42.652;23.318;2023-04-24T05:24:07;18.08;;;9.32;;
59008;SDS011;44794;42.652;23.318;2023-04-24T05:26:32;15.25;;;9.77;;
59008;SDS011;44794;42.652;23.318;2023-04-24T05:28:58;20.30;;;9.38;;
59008;SDS011;44794;42.652;23.318;2023-04-24T05:31:23;21.33;;;10.23;;
59008;SDS011;44794;42.652;23.318;2023-04-24T05:33:49;18.15;;;9.65;;
59008;SDS011;44794;42.652;23.318;2023-04-24T05:36:14;18.45;;;9.23;;
59008;SDS011;44794;42.652;23.318;2023-04-24T05:38:40;15.65;;;8.02;;
59008;SDS011;44794;42.652;23.318;2023-04-24T05:41:05;17.17;;;8.43;;
59008;SDS011;44794;42.652;23.318;2023-04-24T05:43:31;20.45;;;8.20;;
59008;SDS011;44794;42.652;23.318;2023-04-24T05:45:56;15.38;;;11.30;;
59008;SDS011;44794;42.652;23.318;2023-04-24T05:48:22;17.02;;;11.32;;
59008;SDS011;44794;42.652;23.318;2023-04-24T05:50:47;16.52;;;10.68;;
59008;SDS011;44794;42.652;23.318;2023-04-24T05:53:13;14.95;;;11.52;;
59008;SDS011;44794;42.652;23.318;2023-04-24T05:55:38;19.15;;;10.45;;
59008;SDS011;44794;42.652;23.318;2023-04-24T05:58:04;15.65;;;11.05;;
59008;SDS011;44794;42.652;23.318;2023-04-24T06:00:30;17.25;;;10.27;;
59008;SDS011;44794;42.652;23.318;2023-04-24T06:02:56;17.95;;;9.63;;
59008;SDS011;44794;42.652;23.318;2023-04-24T06:05:21;15.90;;;8.70;;
59008;SDS011;44794;42.652;23.318;2023-04-24T06:07:47;17.08;;;9.75;;
59008;SDS011;44794;42.652;23.318;2023-04-24T06:10:13;14.57;;;8.88;;
59008;SDS011;44794;42.652;23.318;2023-04-24T06:12:38;18.13;;;9.48;;
59008;SDS011;44794;42.652;23.318;2023-04-24T06:15:04;12.13;;;8.50;;
59008;SDS011;44794;42.652;23.318;2023-04-24T06:17:30;15.38;;;7.65;;
59008;SDS011;44794;42.652;23.318;2023-04-24T06:19:57;16.90;;;7.97;;
59008;SDS011;44794;42.652;23.318;2023-04-24T06:22:22;13.93;;;8.23;;
59008;SDS011;44794;42.652;23.318;2023-04-24T06:24:47;12.23;;;7.90;;
59008;SDS011;44794;42.652;23.318;2023-04-24T06:27:13;16.55;;;8.40;;
59008;SDS011;44794;42.652;23.318;2023-04-24T06:29:39;21.67;;;8.95;;
59008;SDS011;44794;42.652;23.318;2023-04-24T06:32:04;14.07;;;8.88;;
59008;SDS011;44794;42.652;23.318;2023-04-24T06:34:30;16.30;;;9.38;;
59008;SDS011;44794;42.652;23.318;2023-04-24T06:36:57;13.85;;;8.77;;
59008;SDS011;44794;42.652;23.318;2023-04-24T06:39:23;14.13;;;8.95;;
59008;SDS011;44794;42.652;23.318;2023-04-24T06:41:48;15.50;;;9.18;;
59008;SDS011;44794;42.652;23.318;2023-04-24T06:44:14;16.02;;;9.38;;
59008;SDS011;44794;42.652;23.318;2023-04-24T06:46:40;15.30;;;10.30;;
59008;SDS011;44794;42.652;23.318;2023-04-24T06:49:06;17.25;;;9.98;;
59008;SDS011;44794;42.652;23.318;2023-04-24T06:51:32;23.35;;;10.10;;
59008;SDS011;44794;42.652;23.318;2023-04-24T06:53:58;16.30;;;10.35;;
59008;SDS011;44794;42.652;23.318;2023-04-24T06:56:24;18.58;;;10.52;;
59008;SDS011;44794;42.652;23.318;2023-04-24T06:58:50;16.55;;;10.10;;
59008;SDS011;44794;42.652;23.318;2023-04-24T07:01:16;20.17;;;10.68;;
59008;SDS011;44794;42.652;23.318;2023-04-24T07:03:42;17.80;;;9.98;;
59008;SDS011;44794;42.652;23.318;2023-04-24T07:06:07;18.98;;;10.25;;
59008;SDS011;44794;42.652;23.318;2023-04-24T07:08:36;19.17;;;11.07;;
59008;SDS011;44794;42.652;23.318;2023-04-24T07:11:02;14.43;;;10.57;;
59008;SDS011;44794;42.652;23.318;2023-04-24T07:13:28;16.38;;;10.30;;
59008;SDS011;44794;42.652;23.318;2023-04-24T07:15:53;18.52;;;10.20;;
59008;SDS011;44794;42.652;23.318;2023-04-24T07:18:22;14.75;;;9.90;;
59008;SDS011;44794;42.652;23.318;2023-04-24T07:20:48;12.50;;;9.82;;
59008;SDS011;44794;42.652;23.318;2023-04-24T07:23:17;15.95;;;9.65;;
59008;SDS011;44794;42.652;23.318;2023-04-24T07:25:42;11.40;;;8.95;;
59008;SDS011;44794;42.652;23.318;2023-04-24T07:28:09;15.32;;;9.90;;
59008;SDS011;44794;42.652;23.318;2023-04-24T07:30:35;13.48;;;9.82;;
59008;SDS011;44794;42.652;23.318;2023-04-24T07:33:01;14.68;;;10.35;;
59008;SDS011;44794;42.652;23.318;2023-04-24T07:35:26;20.67;;;10.43;;
59008;SDS011;44794;42.652;23.318;2023-04-24T07:37:55;15.48;;;10.13;;
59008;SDS011;44794;42.652;23.318;2023-04-24T07:40:21;17.17;;;9.93;;
59008;SDS011;44794;42.652;23.318;2023-04-24T07:42:46;14.82;;;10.68;;
59008;SDS011;44794;42.652;23.318;2023-04-24T07:45:13;16.75;;;10.15;;
59008;SDS011;44794;42.652;23.318;2023-04-24T07:47:39;15.43;;;10.45;;
59008;SDS011;44794;42.652;23.318;2023-04-24T07:50:08;14.63;;;10.00;;
59008;SDS011;44794;42.652;23.318;2023-04-24T07:52:34;13.93;;;9.90;;
59008;SDS011;44794;42.652;23.318;2023-04-24T07:55:00;14.18;;;9.77;;
59008;SDS011;44794;42.652;23.318;2023-04-24T07:57:27;20.10;;;10.50;;
59008;SDS011;44794;42.652;23.318;2023-04-24T07:59:53;17.00;;;10.98;;
59008;SDS011;44794;42.652;23.318;2023-04-24T08:02:19;14.30;;;9.80;;
59008;SDS011;44794;42.652;23.318;2023-04-24T08:04:46;16.80;;;10.77;;
59008;SDS011;44794;42.652;23.318;2023-04-24T08:07:12;12.90;;;9.80;;
59008;SDS011;44794;42.652;23.318;2023-04-24T08:09:39;15.18;;;9.75;;
59008;SDS011;44794;42.652;23.318;2023-04-24T08:12:04;15.23;;;9.20;;
59008;SDS011;44794;42.652;23.318;2023-04-24T08:14:30;16.23;;;9.38;;
59008;SDS011;44794;42.652;23.318;2023-04-24T08:16:55;15.50;;;9.30;;
59008;SDS011;44794;42.652;23.318;2023-04-24T08:19:21;16.25;;;10.00;;
59008;SDS011;44794;42.652;23.318;2023-04-24T08:21:47;14.77;;;9.43;;
59008;SDS011;44794;42.652;23.318;2023-04-24T08:24:12;11.43;;;8.85;;
59008;SDS011;44794;42.652;23.318;2023-04-24T08:26:38;21.05;;;9.73;;
59008;SDS011;44794;42.652;23.318;2023-04-24T08:29:04;19.10;;;10.00;;
59008;SDS011;44794;42.652;23.318;2023-04-24T08:31:29;19.05;;;9.57;;
59008;SDS011;44794;42.652;23.318;2023-04-24T08:33:55;17.45;;;9.48;;
59008;SDS011;44794;42.652;23.318;2023-04-24T08:36:21;15.15;;;9.13;;
59008;SDS011;44794;42.652;23.318;2023-04-24T08:38:46;15.98;;;8.80;;
59008;SDS011;44794;42.652;23.318;2023-04-24T08:41:12;14.18;;;9.25;;
59008;SDS011;44794;42.652;23.318;2023-04-24T08:43:39;11.48;;;9.02;;
59008;SDS011;44794;42.652;23.318;2023-04-24T08:46:05;15.52;;;9.18;;
59008;SDS011;44794;42.652;23.318;2023-04-24T08:48:31;12.10;;;9.00;;
59008;SDS011;44794;42.652;23.318;2023-04-24T08:50:56;11.48;;;8.70;;
59008;SDS011;44794;42.652;23.318;2023-04-24T08:53:22;18.17;;;9.00;;
59008;SDS011;44794;42.652;23.318;2023-04-24T08:55:50;13.98;;;8.70;;
59008;SDS011;44794;42.652;23.318;2023-04-24T08:58:16;17.48;;;9.88;;
59008;SDS011;44794;42.652;23.318;2023-04-24T09:00:43;15.65;;;9.70;;
59008;SDS011;44794;42.652;23.318;2023-04-24T09:03:13;14.57;;;9.82;;
59008;SDS011;44794;42.652;23.318;2023-04-24T09:05:41;17.45;;;8.93;;
59008;SDS011;44794;42.652;23.318;2023-04-24T09:08:11;15.50;;;9.23;;
59008;SDS011;44794;42.652;23.318;2023-04-24T09:10:38;16.92;;;8.38;;
59008;SDS011;44794;42.652;23.318;2023-04-24T09:13:05;14.52;;;8.85;;
59008;SDS011;44794;42.652;23.318;2023-04-24T09:15:31;14.45;;;9.07;;
59008;SDS011;44794;42.652;23.318;2023-04-24T09:17:57;11.55;;;7.75;;
59008;SDS011;44794;42.652;23.318;2023-04-24T09:20:22;13.93;;;8.07;;
59008;SDS011;44794;42.652;23.318;2023-04-24T09:22:48;13.07;;;8.55;;
59008;SDS011;44794;42.652;23.318;2023-04-24T09:25:20;12.07;;;8.15;;
59008;SDS011;44794;42.652;23.318;2023-04-24T09:27:46;13.30;;;8.48;;
59008;SDS011;44794;42.652;23.318;2023-04-24T09:30:12;13.13;;;8.32;;
59008;SDS011;44794;42.652;23.318;2023-04-24T09:32:38;16.25;;;8.05;;
59008;SDS011;44794;42.652;23.318;2023-04-24T09:35:10;13.82;;;7.78;;
59008;SDS011;44794;42.652;23.318;2023-04-24T09:37:38;11.68;;;7.57;;
59008;SDS011;44794;42.652;23.318;2023-04-24T09:40:09;14.70;;;7.97;;
59008;SDS011;44794;42.652;23.318;2023-04-24T09:42:51;11.90;;;7.95;;
59008;SDS011;44794;42.652;23.318;2023-04-24T09:45:18;10.50;;;7.43;;
59008;SDS011;44794;42.652;23.318;2023-04-24T09:47:43;11.18;;;7.53;;
59008;SDS011;44794;42.652;23.318;2023-04-24T09:50:13;10.50;;;8.10;;
59008;SDS011;44794;42.652;23.318;2023-04-24T09:52:45;12.70;;;7.97;;
59008;SDS011;44794;42.652;23.318;2023-04-24T09:55:20;13.18;;;7.90;;
59008;SDS011;44794;42.652;23.318;2023-04-24T09:57:55;11.95;;;7.80;;
59008;SDS011;44794;42.652;23.318;2023-04-24T10:00:25;15.20;;;8.48;;
59008;SDS011;44794;42.652;23.318;2023-04-24T10:02:56;15.40;;;7.97;;
59008;SDS011;44794;42.652;23.318;2023-04-24T10:08:09;11.43;;;7.55;;
59008;SDS011;44794;42.652;23.318;2023-04-24T10:10:40;13.25;;;7.20;;
59008;SDS011;44794;42.652;23.318;2023-04-24T10:13:08;13.52;;;7.78;;
59008;SDS011;44794;42.652;23.318;2023-04-24T10:15:35;14.88;;;7.38;;
59008;SDS011;44794;42.652;23.318;2023-04-24T10:18:01;9.73;;;7.05;;
59008;SDS011;44794;42.652;23.318;2023-04-24T10:20:29;8.63;;;6.47;;
59008;SDS011;44794;42.652;23.318;2023-04-24T10:22:56;9.50;;;6.80;;
59008;SDS011;44794;42.652;23.318;2023-04-24T10:25:24;9.95;;;6.97;;
59008;SDS011;44794;42.652;23.318;2023-04-24T10:27:52;10.07;;;6.40;;
59008;SDS011;44794;42.652;23.318;2023-04-24T10:30:19;13.02;;;6.63;;
59008;SDS011;44794;42.652;23.318;2023-04-24T10:32:45;8.13;;;6.25;;
59008;SDS011;44794;42.652;23.318;2023-04-24T10:35:12;8.93;;;6.22;;
59008;SDS011;44794;42.652;23.318;2023-04-24T10:37:48;11.15;;;6.50;;
59008;SDS011;44794;42.652;23.318;2023-04-24T10:40:19;9.40;;;6.20;;
59008;SDS011;44794;42.652;23.318;2023-04-24T10:42:51;8.07;;;5.60;;
59008;SDS011;44794;42.652;23.318;2023-04-24T10:45:19;12.27;;;6.63;;
59008;SDS011;44794;42.652;23.318;2023-04-24T10:47:54;9.60;;;6.00;;
59008;SDS011;44794;42.652;23.318;2023-04-24T10:50:41;9.25;;;6.10;;
59008;SDS011;44794;42.652;23.318;2023-04-24T10:53:07;11.55;;;6.30;;
59008;SDS011;44794;42.652;23.318;2023-04-24T10:58:38;9.20;;;6.03;;
59008;SDS011;44794;42.652;23.318;2023-04-24T11:01:05;11.57;;;6.55;;
59008;SDS011;44794;42.652;23.318;2023-04-24T11:03:32;10.30;;;5.78;;
59008;SDS011;44794;42.652;23.318;2023-04-24T11:08:25;10.18;;;5.45;;
59008;SDS011;44794;42.652;23.318;2023-04-24T11:11:02;11.63;;;5.53;;
59008;SDS011;44794;42.652;23.318;2023-04-24T11:18:51;7.45;;;5.75;;
59008;SDS011;44794;42.652;23.318;2023-04-24T11:21:25;15.70;;;6.80;;
59008;SDS011;44794;42.652;23.318;2023-04-24T11:23:51;10.40;;;6.15;;
59008;SDS011;44794;42.652;23.318;2023-04-24T11:26:21;14.52;;;6.22;;
59008;SDS011;44794;42.652;23.318;2023-04-24T11:28:49;10.35;;;4.75;;
59008;SDS011;44794;42.652;23.318;2023-04-24T11:31:37;8.05;;;4.22;;
59008;SDS011;44794;42.652;23.318;2023-04-24T11:34:13;9.68;;;4.65;;
59008;SDS011;44794;42.652;23.318;2023-04-24T11:36:43;4.85;;;3.30;;
59008;SDS011;44794;42.652;23.318;2023-04-24T11:39:09;5.00;;;4.50;;
59008;SDS011;44794;42.652;23.318;2023-04-24T11:41:36;6.55;;;4.90;;
59008;SDS011;44794;42.652;23.318;2023-04-24T11:44:02;7.15;;;5.10;;
59008;SDS011;44794;42.652;23.318;2023-04-24T11:46:29;8.77;;;5.53;;
59008;SDS011;44794;42.652;23.318;2023-04-24T11:48:56;7.70;;;5.53;;
59008;SDS011;44794;42.652;23.318;2023-04-24T11:51:23;6.70;;;5.70;;
59008;SDS011;44794;42.652;23.318;2023-04-24T11:53:53;8.32;;;6.30;;
59008;SDS011;44794;42.652;23.318;2023-04-24T11:56:19;8.65;;;6.63;;
59008;SDS011;44794;42.652;23.318;2023-04-24T11:58:47;8.45;;;6.18;;
59008;SDS011;44794;42.652;23.318;2023-04-24T12:01:12;6.88;;;6.18;;
59008;SDS011;44794;42.652;23.318;2023-04-24T12:03:38;7.78;;;6.60;;
59008;SDS011;44794;42.652;23.318;2023-04-24T12:06:04;7.90;;;6.22;;
59008;SDS011;44794;42.652;23.318;2023-04-24T12:08:31;6.47;;;5.45;;
59008;SDS011;44794;42.652;23.318;2023-04-24T12:10:57;6.28;;;5.60;;
59008;SDS011;44794;42.652;23.318;2023-04-24T12:13:25;7.47;;;5.97;;
59008;SDS011;44794;42.652;23.318;2023-04-24T12:15:50;8.45;;;5.60;;
59008;SDS011;44794;42.652;23.318;2023-04-24T12:18:16;8.57;;;5.72;;
59008;SDS011;44794;42.652;23.318;2023-04-24T12:20:42;6.07;;;5.47;;
59008;SDS011;44794;42.652;23.318;2023-04-24T12:23:07;12.00;;;6.30;;
59008;SDS011;44794;42.652;23.318;2023-04-24T12:25:33;4.78;;;4.22;;
59008;SDS011;44794;42.652;23.318;2023-04-24T12:30:27;6.97;;;4.72;;
59008;SDS011;44794;42.652;23.318;2023-04-24T12:32:56;7.55;;;4.63;;
59008;SDS011;44794;42.652;23.318;2023-04-24T12:35:23;8.85;;;5.22;;
59008;SDS011;44794;42.652;23.318;2023-04-24T12:37:50;7.72;;;5.38;;
59008;SDS011;44794;42.652;23.318;2023-04-24T12:40:17;7.57;;;5.30;;
59008;SDS011;44794;42.652;23.318;2023-04-24T12:45:16;5.75;;;4.70;;
59008;SDS011;44794;42.652;23.318;2023-04-24T12:47:44;5.75;;;5.13;;
59008;SDS011;44794;42.652;23.318;2023-04-24T12:50:11;5.60;;;5.00;;
59008;SDS011;44794;42.652;23.318;2023-04-24T12:52:38;10.30;;;5.68;;
59008;SDS011;44794;42.652;23.318;2023-04-24T12:55:04;7.90;;;5.47;;
59008;SDS011;44794;42.652;23.318;2023-04-24T12:57:33;9.43;;;5.45;;
59008;SDS011;44794;42.652;23.318;2023-04-24T13:00:00;7.03;;;5.15;;
59008;SDS011;44794;42.652;23.318;2023-04-24T13:02:28;9.50;;;5.20;;
59008;SDS011;44794;42.652;23.318;2023-04-24T13:04:56;7.30;;;5.43;;
59008;SDS011;44794;42.652;23.318;2023-04-24T13:07:22;8.55;;;4.95;;
59008;SDS011;44794;42.652;23.318;2023-04-24T13:09:48;7.78;;;5.20;;
59008;SDS011;44794;42.652;23.318;2023-04-24T13:12:15;9.82;;;5.60;;
59008;SDS011;44794;42.652;23.318;2023-04-24T13:14:41;10.30;;;5.57;;
59008;SDS011;44794;42.652;23.318;2023-04-24T13:17:06;6.05;;;5.10;;
59008;SDS011;44794;42.652;23.318;2023-04-24T13:19:36;7.07;;;4.95;;
59008;SDS011;44794;42.652;23.318;2023-04-24T13:22:03;10.15;;;4.78;;
59008;SDS011;44794;42.652;23.318;2023-04-24T13:24:29;6.57;;;4.97;;
59008;SDS011;44794;42.652;23.318;2023-04-24T13:26:56;8.70;;;5.13;;
59008;SDS011;44794;42.652;23.318;2023-04-24T13:29:21;12.00;;;6.07;;
59008;SDS011;44794;42.652;23.318;2023-04-24T13:31:47;5.53;;;4.80;;
59008;SDS011;44794;42.652;23.318;2023-04-24T13:34:15;7.50;;;4.68;;
59008;SDS011;44794;42.652;23.318;2023-04-24T13:36:40;8.32;;;5.07;;
59008;SDS011;44794;42.652;23.318;2023-04-24T13:39:06;10.48;;;5.15;;
59008;SDS011;44794;42.652;23.318;2023-04-24T13:41:32;7.18;;;4.88;;
59008;SDS011;44794;42.652;23.318;2023-04-24T13:43:58;6.43;;;5.05;;
59008;SDS011;44794;42.652;23.318;2023-04-24T13:46:23;9.63;;;5.30;;
59008;SDS011;44794;42.652;23.318;2023-04-24T13:48:49;5.95;;;5.20;;
59008;SDS011;44794;42.652;23.318;2023-04-24T13:51:14;8.93;;;5.93;;
59008;SDS011;44794;42.652;23.318;2023-04-24T13:53:40;11.13;;;5.70;;
59008;SDS011;44794;42.652;23.318;2023-04-24T13:56:05;7.80;;;5.22;;
59008;SDS011;44794;42.652;23.318;2023-04-24T13:58:31;6.78;;;5.57;;
59008;SDS011;44794;42.652;23.318;2023-04-24T14:00:57;8.60;;;5.68;;
59008;SDS011;44794;42.652;23.318;2023-04-24T14:03:23;7.47;;;4.95;;
59008;SDS011;44794;42.652;23.318;2023-04-24T14:05:48;7.70;;;4.60;;
59008;SDS011;44794;42.652;23.318;2023-04-24T14:08:13;6.60;;;4.82;;
59008;SDS011;44794;42.652;23.318;2023-04-24T14:10:39;11.93;;;5.00;;
59008;SDS011;44794;42.652;23.318;2023-04-24T14:13:05;6.00;;;5.40;;
59008;SDS011;44794;42.652;23.318;2023-04-24T14:15:31;18.90;;;5.60;;
59008;SDS011;44794;42.652;23.318;2023-04-24T14:17:57;8.20;;;5.30;;
59008;SDS011;44794;42.652;23.318;2023-04-24T14:20:22;5.95;;;5.22;;
59008;SDS011;44794;42.652;23.318;2023-04-24T14:22:48;7.85;;;4.57;;
59008;SDS011;44794;42.652;23.318;2023-04-24T14:25:13;4.63;;;4.15;;
59008;SDS011;44794;42.652;23.318;2023-04-24T14:27:39;12.65;;;5.20;;
59008;SDS011;44794;42.652;23.318;2023-04-24T14:30:05;10.85;;;5.80;;
59008;SDS011;44794;42.652;23.318;2023-04-24T14:32:31;9.68;;;6.00;;